CheckWX is a tool to help pilots better visualize weather data.  It is not intended as a substitute for an official pre-flight weather briefing.

03:52:02 UTC

1K1 METAR
Lloyd Stearman Field Airport
Benton, Kansas, USA
Current

17 mins ago

K1K1 290335Z AUTO 31005KT 10SM CLR 06/M02 A3025 RMK AO2 T00631025
Observed
Feb-29 @ 03:35 UTC
Wind
  • 310° at 5 KTS
Visibility
10 SM
Flight Rules
VFR
Cloud Levels
  • Clear skies
Temperature
C / 43°F
Dewpoint
-3°C / 27°F
Humidity
53%
Altimeter
30.25" Hg
Pressure
1024.42 hPa
Previous

42 mins ago

K1K1 290310Z AUTO 30006KT 10SM CLR 06/M02 A3024 RMK AO2 T00621025
Observed
Feb-29 @ 03:10 UTC
Wind
  • 300° at 6 KTS
Visibility
10 SM
Flight Rules
VFR
Cloud Levels
  • Clear skies
Temperature
C / 43°F
Dewpoint
-3°C / 27°F
Humidity
53%
Altimeter
30.24" Hg
Pressure
1024.02 hPa
Previous

1 hour ago

K1K1 290250Z AUTO 30005KT 10SM CLR 06/M02 A3024 RMK AO2 T00621020
Observed
Feb-29 @ 02:50 UTC
Wind
  • 300° at 5 KTS
Visibility
10 SM
Flight Rules
VFR
Cloud Levels
  • Clear skies
Temperature
C / 43°F
Dewpoint
-2°C / 28°F
Humidity
57%
Altimeter
30.24" Hg
Pressure
1024.02 hPa